sensor_id;sensor_type;location;lat;lon;timestamp;P1;durP1;ratioP1;P2;durP2;ratioP2
57337;SDS011;43173;50.980;18.204;2023-08-01T00:01:28;10.10;;;3.50;;
57337;SDS011;43173;50.980;18.204;2023-08-01T00:04:02;7.00;;;2.90;;
57337;SDS011;43173;50.980;18.204;2023-08-01T00:06:27;5.40;;;3.00;;
57337;SDS011;43173;50.980;18.204;2023-08-01T00:08:53;5.70;;;3.20;;
57337;SDS011;43173;50.980;18.204;2023-08-01T00:11:18;9.20;;;3.40;;
57337;SDS011;43173;50.980;18.204;2023-08-01T00:13:44;6.40;;;3.30;;
57337;SDS011;43173;50.980;18.204;2023-08-01T00:16:10;8.80;;;3.80;;
57337;SDS011;43173;50.980;18.204;2023-08-01T00:18:35;7.70;;;3.20;;
57337;SDS011;43173;50.980;18.204;2023-08-01T00:21:01;4.70;;;3.10;;
57337;SDS011;43173;50.980;18.204;2023-08-01T00:23:28;8.40;;;3.30;;
57337;SDS011;43173;50.980;18.204;2023-08-01T00:25:53;6.20;;;3.10;;
57337;SDS011;43173;50.980;18.204;2023-08-01T00:28:19;8.10;;;3.40;;
57337;SDS011;43173;50.980;18.204;2023-08-01T00:30:44;4.30;;;2.80;;
57337;SDS011;43173;50.980;18.204;2023-08-01T00:33:10;11.20;;;3.60;;
57337;SDS011;43173;50.980;18.204;2023-08-01T00:35:36;5.80;;;3.20;;
57337;SDS011;43173;50.980;18.204;2023-08-01T00:38:01;8.10;;;3.70;;
57337;SDS011;43173;50.980;18.204;2023-08-01T00:40:30;5.60;;;3.00;;
57337;SDS011;43173;50.980;18.204;2023-08-01T00:42:57;6.30;;;3.00;;
57337;SDS011;43173;50.980;18.204;2023-08-01T00:45:23;9.10;;;3.00;;
57337;SDS011;43173;50.980;18.204;2023-08-01T00:47:54;8.50;;;3.40;;
57337;SDS011;43173;50.980;18.204;2023-08-01T00:50:20;4.70;;;2.70;;
57337;SDS011;43173;50.980;18.204;2023-08-01T00:52:47;13.20;;;3.10;;
57337;SDS011;43173;50.980;18.204;2023-08-01T00:55:14;5.00;;;2.70;;
57337;SDS011;43173;50.980;18.204;2023-08-01T00:57:40;7.50;;;3.10;;
57337;SDS011;43173;50.980;18.204;2023-08-01T01:00:06;5.90;;;2.90;;
57337;SDS011;43173;50.980;18.204;2023-08-01T01:02:32;7.30;;;3.20;;
57337;SDS011;43173;50.980;18.204;2023-08-01T01:04:57;7.30;;;3.00;;
57337;SDS011;43173;50.980;18.204;2023-08-01T01:07:23;5.90;;;3.10;;
57337;SDS011;43173;50.980;18.204;2023-08-01T01:09:50;7.30;;;3.20;;
57337;SDS011;43173;50.980;18.204;2023-08-01T01:12:16;6.80;;;3.20;;
57337;SDS011;43173;50.980;18.204;2023-08-01T01:14:41;5.00;;;2.80;;
57337;SDS011;43173;50.980;18.204;2023-08-01T01:17:07;9.80;;;2.90;;
57337;SDS011;43173;50.980;18.204;2023-08-01T01:19:33;4.80;;;2.80;;
57337;SDS011;43173;50.980;18.204;2023-08-01T01:21:58;6.70;;;3.00;;
57337;SDS011;43173;50.980;18.204;2023-08-01T01:24:24;5.00;;;2.60;;
57337;SDS011;43173;50.980;18.204;2023-08-01T01:26:51;6.80;;;2.70;;
57337;SDS011;43173;50.980;18.204;2023-08-01T01:29:17;9.70;;;3.00;;
57337;SDS011;43173;50.980;18.204;2023-08-01T01:31:43;6.60;;;2.80;;
57337;SDS011;43173;50.980;18.204;2023-08-01T01:34:10;5.80;;;2.90;;
57337;SDS011;43173;50.980;18.204;2023-08-01T01:36:35;6.50;;;2.70;;
57337;SDS011;43173;50.980;18.204;2023-08-01T01:39:01;5.50;;;3.00;;
57337;SDS011;43173;50.980;18.204;2023-08-01T01:41:27;6.40;;;2.60;;
57337;SDS011;43173;50.980;18.204;2023-08-01T01:43:52;7.20;;;2.60;;
57337;SDS011;43173;50.980;18.204;2023-08-01T01:46:19;8.20;;;2.60;;
57337;SDS011;43173;50.980;18.204;2023-08-01T01:48:45;5.00;;;2.70;;
57337;SDS011;43173;50.980;18.204;2023-08-01T01:51:10;5.20;;;2.60;;
57337;SDS011;43173;50.980;18.204;2023-08-01T01:53:36;7.90;;;2.90;;
57337;SDS011;43173;50.980;18.204;2023-08-01T01:56:02;8.70;;;2.80;;
57337;SDS011;43173;50.980;18.204;2023-08-01T01:58:27;8.80;;;3.00;;
57337;SDS011;43173;50.980;18.204;2023-08-01T02:00:53;6.90;;;2.90;;
57337;SDS011;43173;50.980;18.204;2023-08-01T02:03:19;4.80;;;2.70;;
57337;SDS011;43173;50.980;18.204;2023-08-01T02:05:44;5.30;;;2.50;;
57337;SDS011;43173;50.980;18.204;2023-08-01T02:08:10;8.00;;;2.90;;
57337;SDS011;43173;50.980;18.204;2023-08-01T02:10:35;10.00;;;3.00;;
57337;SDS011;43173;50.980;18.204;2023-08-01T02:13:01;5.10;;;2.50;;
57337;SDS011;43173;50.980;18.204;2023-08-01T02:15:26;6.30;;;2.70;;
57337;SDS011;43173;50.980;18.204;2023-08-01T02:17:52;6.60;;;2.70;;
57337;SDS011;43173;50.980;18.204;2023-08-01T02:20:18;5.10;;;2.70;;
57337;SDS011;43173;50.980;18.204;2023-08-01T02:22:43;5.80;;;2.60;;
57337;SDS011;43173;50.980;18.204;2023-08-01T02:25:09;5.20;;;2.80;;
57337;SDS011;43173;50.980;18.204;2023-08-01T02:27:36;6.50;;;3.20;;
57337;SDS011;43173;50.980;18.204;2023-08-01T02:30:02;7.10;;;3.00;;
57337;SDS011;43173;50.980;18.204;2023-08-01T02:32:28;8.10;;;3.10;;
57337;SDS011;43173;50.980;18.204;2023-08-01T02:34:54;6.00;;;2.90;;
57337;SDS011;43173;50.980;18.204;2023-08-01T02:37:19;8.10;;;2.90;;
57337;SDS011;43173;50.980;18.204;2023-08-01T02:39:45;6.90;;;2.60;;
57337;SDS011;43173;50.980;18.204;2023-08-01T02:42:11;5.40;;;3.00;;
57337;SDS011;43173;50.980;18.204;2023-08-01T02:44:36;4.20;;;2.50;;
57337;SDS011;43173;50.980;18.204;2023-08-01T02:47:02;6.00;;;2.80;;
57337;SDS011;43173;50.980;18.204;2023-08-01T02:49:28;7.40;;;3.10;;
57337;SDS011;43173;50.980;18.204;2023-08-01T02:51:54;6.30;;;2.90;;
57337;SDS011;43173;50.980;18.204;2023-08-01T02:54:20;6.10;;;3.00;;
57337;SDS011;43173;50.980;18.204;2023-08-01T02:56:45;4.40;;;2.70;;
57337;SDS011;43173;50.980;18.204;2023-08-01T02:59:11;6.00;;;2.60;;
57337;SDS011;43173;50.980;18.204;2023-08-01T03:01:37;4.80;;;2.80;;
57337;SDS011;43173;50.980;18.204;2023-08-01T03:04:04;5.50;;;3.30;;
57337;SDS011;43173;50.980;18.204;2023-08-01T03:06:34;8.00;;;3.10;;
57337;SDS011;43173;50.980;18.204;2023-08-01T11:21:25;6.20;;;4.50;;
57337;SDS011;43173;50.980;18.204;2023-08-01T11:23:52;7.40;;;4.40;;
57337;SDS011;43173;50.980;18.204;2023-08-01T11:27:21;10.00;;;4.60;;
57337;SDS011;43173;50.980;18.204;2023-08-01T11:29:47;6.30;;;3.70;;
57337;SDS011;43173;50.980;18.204;2023-08-01T11:32:12;6.70;;;4.30;;
57337;SDS011;43173;50.980;18.204;2023-08-01T11:34:41;7.00;;;4.20;;
57337;SDS011;43173;50.980;18.204;2023-08-01T11:37:12;7.50;;;4.00;;
57337;SDS011;43173;50.980;18.204;2023-08-01T11:39:39;9.00;;;3.60;;
57337;SDS011;43173;50.980;18.204;2023-08-01T11:42:05;5.00;;;3.90;;
57337;SDS011;43173;50.980;18.204;2023-08-01T11:44:31;8.60;;;4.40;;
57337;SDS011;43173;50.980;18.204;2023-08-01T11:46:57;7.70;;;4.10;;
57337;SDS011;43173;50.980;18.204;2023-08-01T11:49:23;5.70;;;3.60;;
57337;SDS011;43173;50.980;18.204;2023-08-01T11:51:49;6.10;;;3.60;;
57337;SDS011;43173;50.980;18.204;2023-08-01T11:54:15;7.30;;;3.60;;
57337;SDS011;43173;50.980;18.204;2023-08-01T11:56:42;5.80;;;4.00;;
57337;SDS011;43173;50.980;18.204;2023-08-01T11:59:12;6.50;;;3.90;;
57337;SDS011;43173;50.980;18.204;2023-08-01T12:01:39;4.90;;;3.90;;
57337;SDS011;43173;50.980;18.204;2023-08-01T12:04:09;7.70;;;4.20;;
57337;SDS011;43173;50.980;18.204;2023-08-01T12:06:36;5.10;;;3.40;;
57337;SDS011;43173;50.980;18.204;2023-08-01T12:09:11;5.70;;;3.80;;
57337;SDS011;43173;50.980;18.204;2023-08-01T12:11:38;7.40;;;4.10;;
57337;SDS011;43173;50.980;18.204;2023-08-01T12:14:06;5.30;;;3.90;;
57337;SDS011;43173;50.980;18.204;2023-08-01T12:16:37;5.10;;;3.20;;
57337;SDS011;43173;50.980;18.204;2023-08-01T12:19:03;6.10;;;3.90;;
57337;SDS011;43173;50.980;18.204;2023-08-01T12:21:31;6.70;;;4.20;;
57337;SDS011;43173;50.980;18.204;2023-08-01T12:23:57;8.00;;;4.30;;
57337;SDS011;43173;50.980;18.204;2023-08-01T12:26:23;9.00;;;4.00;;
57337;SDS011;43173;50.980;18.204;2023-08-01T12:28:49;7.30;;;4.20;;
57337;SDS011;43173;50.980;18.204;2023-08-01T12:31:15;6.00;;;3.70;;
57337;SDS011;43173;50.980;18.204;2023-08-01T12:33:45;5.50;;;3.60;;
57337;SDS011;43173;50.980;18.204;2023-08-01T12:36:11;7.40;;;4.10;;
57337;SDS011;43173;50.980;18.204;2023-08-01T12:38:37;5.50;;;3.80;;
57337;SDS011;43173;50.980;18.204;2023-08-01T12:41:03;5.80;;;3.80;;
57337;SDS011;43173;50.980;18.204;2023-08-01T12:43:29;6.10;;;4.40;;
57337;SDS011;43173;50.980;18.204;2023-08-01T12:45:54;5.60;;;3.70;;
57337;SDS011;43173;50.980;18.204;2023-08-01T12:48:24;7.40;;;4.30;;
57337;SDS011;43173;50.980;18.204;2023-08-01T12:50:50;5.60;;;3.80;;
57337;SDS011;43173;50.980;18.204;2023-08-01T12:53:16;5.80;;;4.20;;
57337;SDS011;43173;50.980;18.204;2023-08-01T12:55:48;8.60;;;3.90;;
57337;SDS011;43173;50.980;18.204;2023-08-01T12:58:15;5.80;;;4.00;;
57337;SDS011;43173;50.980;18.204;2023-08-01T13:00:41;5.20;;;3.90;;
57337;SDS011;43173;50.980;18.204;2023-08-01T13:03:07;6.00;;;3.60;;
57337;SDS011;43173;50.980;18.204;2023-08-01T13:05:34;6.30;;;3.30;;
57337;SDS011;43173;50.980;18.204;2023-08-01T13:08:02;5.00;;;3.40;;
57337;SDS011;43173;50.980;18.204;2023-08-01T13:10:32;5.00;;;3.20;;
57337;SDS011;43173;50.980;18.204;2023-08-01T13:12:59;4.10;;;3.00;;
57337;SDS011;43173;50.980;18.204;2023-08-01T13:15:24;6.30;;;3.30;;
57337;SDS011;43173;50.980;18.204;2023-08-01T13:17:51;8.40;;;3.10;;
57337;SDS011;43173;50.980;18.204;2023-08-01T13:20:17;5.60;;;3.00;;
57337;SDS011;43173;50.980;18.204;2023-08-01T13:22:44;3.90;;;3.00;;
57337;SDS011;43173;50.980;18.204;2023-08-01T13:25:12;5.50;;;3.70;;
57337;SDS011;43173;50.980;18.204;2023-08-01T13:27:38;4.30;;;3.20;;
57337;SDS011;43173;50.980;18.204;2023-08-01T13:30:04;6.90;;;3.20;;
57337;SDS011;43173;50.980;18.204;2023-08-01T13:32:31;5.80;;;2.70;;
57337;SDS011;43173;50.980;18.204;2023-08-01T13:34:57;4.40;;;3.20;;
57337;SDS011;43173;50.980;18.204;2023-08-01T13:37:22;4.20;;;2.70;;
57337;SDS011;43173;50.980;18.204;2023-08-01T13:39:48;4.50;;;2.90;;
57337;SDS011;43173;50.980;18.204;2023-08-01T13:42:15;4.40;;;2.90;;
57337;SDS011;43173;50.980;18.204;2023-08-01T13:44:40;6.60;;;3.40;;
57337;SDS011;43173;50.980;18.204;2023-08-01T13:47:06;6.40;;;3.40;;
57337;SDS011;43173;50.980;18.204;2023-08-01T13:49:32;5.30;;;3.00;;
57337;SDS011;43173;50.980;18.204;2023-08-01T13:51:58;5.50;;;3.30;;
57337;SDS011;43173;50.980;18.204;2023-08-01T13:54:25;5.80;;;3.20;;
57337;SDS011;43173;50.980;18.204;2023-08-01T13:56:51;5.20;;;2.90;;
57337;SDS011;43173;50.980;18.204;2023-08-01T13:59:18;4.70;;;3.20;;
57337;SDS011;43173;50.980;18.204;2023-08-01T14:01:45;4.80;;;3.30;;
57337;SDS011;43173;50.980;18.204;2023-08-01T14:04:11;5.00;;;3.00;;
57337;SDS011;43173;50.980;18.204;2023-08-01T14:06:42;7.70;;;3.10;;
57337;SDS011;43173;50.980;18.204;2023-08-01T14:09:08;5.30;;;3.00;;
57337;SDS011;43173;50.980;18.204;2023-08-01T14:11:34;5.40;;;3.00;;
57337;SDS011;43173;50.980;18.204;2023-08-01T14:14:01;6.30;;;3.20;;
57337;SDS011;43173;50.980;18.204;2023-08-01T14:16:27;4.30;;;2.90;;
57337;SDS011;43173;50.980;18.204;2023-08-01T14:18:53;5.90;;;3.30;;
57337;SDS011;43173;50.980;18.204;2023-08-01T14:21:19;3.90;;;2.90;;
57337;SDS011;43173;50.980;18.204;2023-08-01T14:23:45;5.00;;;2.80;;
57337;SDS011;43173;50.980;18.204;2023-08-01T14:26:10;4.70;;;2.60;;
57337;SDS011;43173;50.980;18.204;2023-08-01T14:28:36;4.60;;;2.40;;
57337;SDS011;43173;50.980;18.204;2023-08-01T14:31:02;6.20;;;2.60;;
57337;SDS011;43173;50.980;18.204;2023-08-01T14:33:28;4.90;;;3.00;;
57337;SDS011;43173;50.980;18.204;2023-08-01T14:35:55;4.20;;;2.60;;
57337;SDS011;43173;50.980;18.204;2023-08-01T14:38:21;3.20;;;2.40;;
57337;SDS011;43173;50.980;18.204;2023-08-01T14:40:47;4.00;;;2.20;;
57337;SDS011;43173;50.980;18.204;2023-08-01T14:43:12;5.00;;;2.40;;
57337;SDS011;43173;50.980;18.204;2023-08-01T14:45:39;3.50;;;2.40;;
57337;SDS011;43173;50.980;18.204;2023-08-01T14:48:06;4.20;;;2.30;;
57337;SDS011;43173;50.980;18.204;2023-08-01T14:50:32;3.40;;;2.10;;
57337;SDS011;43173;50.980;18.204;2023-08-01T14:52:58;4.20;;;2.40;;
57337;SDS011;43173;50.980;18.204;2023-08-01T14:55:23;3.00;;;2.00;;
57337;SDS011;43173;50.980;18.204;2023-08-01T14:57:49;3.30;;;2.20;;
57337;SDS011;43173;50.980;18.204;2023-08-01T15:00:15;3.10;;;2.30;;
57337;SDS011;43173;50.980;18.204;2023-08-01T15:02:41;3.40;;;2.30;;
57337;SDS011;43173;50.980;18.204;2023-08-01T15:05:07;4.60;;;2.60;;
57337;SDS011;43173;50.980;18.204;2023-08-01T15:07:33;4.00;;;2.40;;
57337;SDS011;43173;50.980;18.204;2023-08-01T15:09:59;7.10;;;2.70;;
57337;SDS011;43173;50.980;18.204;2023-08-01T15:12:25;3.70;;;2.40;;
57337;SDS011;43173;50.980;18.204;2023-08-01T15:14:52;4.20;;;2.60;;
57337;SDS011;43173;50.980;18.204;2023-08-01T15:17:18;5.10;;;2.60;;
57337;SDS011;43173;50.980;18.204;2023-08-01T15:19:44;4.70;;;2.60;;
57337;SDS011;43173;50.980;18.204;2023-08-01T15:22:12;4.50;;;2.30;;
57337;SDS011;43173;50.980;18.204;2023-08-01T15:24:39;5.40;;;2.90;;
57337;SDS011;43173;50.980;18.204;2023-08-01T15:27:05;4.70;;;2.50;;
57337;SDS011;43173;50.980;18.204;2023-08-01T15:29:31;3.20;;;2.50;;
57337;SDS011;43173;50.980;18.204;2023-08-01T15:31:56;6.30;;;2.90;;
57337;SDS011;43173;50.980;18.204;2023-08-01T15:34:22;3.30;;;2.40;;
57337;SDS011;43173;50.980;18.204;2023-08-01T15:36:47;4.70;;;2.60;;
57337;SDS011;43173;50.980;18.204;2023-08-01T15:39:13;6.90;;;2.60;;
57337;SDS011;43173;50.980;18.204;2023-08-01T15:41:40;5.40;;;2.60;;
57337;SDS011;43173;50.980;18.204;2023-08-01T15:44:05;8.20;;;3.00;;
57337;SDS011;43173;50.980;18.204;2023-08-01T15:46:32;6.70;;;2.60;;
57337;SDS011;43173;50.980;18.204;2023-08-01T15:48:58;4.10;;;2.40;;
57337;SDS011;43173;50.980;18.204;2023-08-01T15:51:24;3.80;;;2.90;;
57337;SDS011;43173;50.980;18.204;2023-08-01T15:53:50;5.80;;;2.50;;
57337;SDS011;43173;50.980;18.204;2023-08-01T15:56:16;3.30;;;2.70;;
57337;SDS011;43173;50.980;18.204;2023-08-01T15:58:42;4.20;;;2.00;;
57337;SDS011;43173;50.980;18.204;2023-08-01T16:01:07;5.30;;;2.80;;
57337;SDS011;43173;50.980;18.204;2023-08-01T16:03:35;3.50;;;2.50;;
57337;SDS011;43173;50.980;18.204;2023-08-01T16:06:02;5.00;;;2.70;;
57337;SDS011;43173;50.980;18.204;2023-08-01T16:08:28;3.70;;;2.60;;
57337;SDS011;43173;50.980;18.204;2023-08-01T16:10:54;4.10;;;2.70;;
57337;SDS011;43173;50.980;18.204;2023-08-01T16:13:20;5.40;;;2.70;;
57337;SDS011;43173;50.980;18.204;2023-08-01T16:15:46;5.30;;;2.90;;
57337;SDS011;43173;50.980;18.204;2023-08-01T16:18:11;4.20;;;2.70;;
57337;SDS011;43173;50.980;18.204;2023-08-01T16:20:37;3.90;;;2.60;;
57337;SDS011;43173;50.980;18.204;2023-08-01T16:23:03;4.10;;;2.70;;
57337;SDS011;43173;50.980;18.204;2023-08-01T16:25:29;5.00;;;2.60;;
57337;SDS011;43173;50.980;18.204;2023-08-01T16:27:54;5.50;;;2.80;;
57337;SDS011;43173;50.980;18.204;2023-08-01T16:30:20;4.50;;;3.00;;
57337;SDS011;43173;50.980;18.204;2023-08-01T16:32:46;4.50;;;3.10;;
57337;SDS011;43173;50.980;18.204;2023-08-01T16:35:14;3.40;;;2.50;;
57337;SDS011;43173;50.980;18.204;2023-08-01T16:37:40;5.90;;;2.80;;
57337;SDS011;43173;50.980;18.204;2023-08-01T16:40:07;3.80;;;2.60;;
57337;SDS011;43173;50.980;18.204;2023-08-01T16:42:33;4.90;;;3.10;;
57337;SDS011;43173;50.980;18.204;2023-08-01T16:44:59;3.50;;;2.40;;
57337;SDS011;43173;50.980;18.204;2023-08-01T16:47:24;6.70;;;2.80;;
57337;SDS011;43173;50.980;18.204;2023-08-01T16:49:53;4.30;;;2.80;;
57337;SDS011;43173;50.980;18.204;2023-08-01T16:52:20;5.40;;;2.60;;
57337;SDS011;43173;50.980;18.204;2023-08-01T16:54:46;3.50;;;2.80;;
57337;SDS011;43173;50.980;18.204;2023-08-01T16:57:11;5.10;;;2.60;;
57337;SDS011;43173;50.980;18.204;2023-08-01T16:59:37;5.80;;;3.10;;
57337;SDS011;43173;50.980;18.204;2023-08-01T17:02:07;3.50;;;2.40;;
57337;SDS011;43173;50.980;18.204;2023-08-01T17:04:34;3.70;;;2.30;;
57337;SDS011;43173;50.980;18.204;2023-08-01T17:07:03;4.20;;;3.10;;
57337;SDS011;43173;50.980;18.204;2023-08-01T17:09:29;4.70;;;2.80;;
57337;SDS011;43173;50.980;18.204;2023-08-01T17:11:56;3.90;;;2.50;;
57337;SDS011;43173;50.980;18.204;2023-08-01T17:14:22;4.50;;;2.50;;
57337;SDS011;43173;50.980;18.204;2023-08-01T17:16:48;6.50;;;2.90;;
57337;SDS011;43173;50.980;18.204;2023-08-01T17:19:14;5.70;;;2.90;;
57337;SDS011;43173;50.980;18.204;2023-08-01T17:21:40;5.60;;;2.70;;
57337;SDS011;43173;50.980;18.204;2023-08-01T17:24:07;5.60;;;2.80;;
57337;SDS011;43173;50.980;18.204;2023-08-01T17:26:38;4.50;;;2.70;;
57337;SDS011;43173;50.980;18.204;2023-08-01T17:29:04;4.80;;;2.90;;
57337;SDS011;43173;50.980;18.204;2023-08-01T17:31:30;4.00;;;2.80;;
57337;SDS011;43173;50.980;18.204;2023-08-01T17:34:02;8.50;;;3.30;;
57337;SDS011;43173;50.980;18.204;2023-08-01T17:36:29;4.10;;;2.60;;
57337;SDS011;43173;50.980;18.204;2023-08-01T17:38:55;3.70;;;2.60;;
57337;SDS011;43173;50.980;18.204;2023-08-01T17:41:22;5.60;;;3.30;;
57337;SDS011;43173;50.980;18.204;2023-08-01T17:43:50;5.30;;;2.80;;
57337;SDS011;43173;50.980;18.204;2023-08-01T17:46:16;6.10;;;2.90;;
57337;SDS011;43173;50.980;18.204;2023-08-01T17:48:41;5.80;;;2.90;;
57337;SDS011;43173;50.980;18.204;2023-08-01T17:51:08;5.70;;;3.30;;
57337;SDS011;43173;50.980;18.204;2023-08-01T17:53:35;4.30;;;3.30;;
57337;SDS011;43173;50.980;18.204;2023-08-01T17:56:03;5.60;;;3.10;;
57337;SDS011;43173;50.980;18.204;2023-08-01T17:58:29;4.10;;;3.10;;
57337;SDS011;43173;50.980;18.204;2023-08-01T18:00:55;4.00;;;3.10;;
57337;SDS011;43173;50.980;18.204;2023-08-01T18:03:22;5.50;;;3.20;;
57337;SDS011;43173;50.980;18.204;2023-08-01T18:05:48;4.40;;;3.40;;
57337;SDS011;43173;50.980;18.204;2023-08-01T18:08:14;4.70;;;3.20;;
57337;SDS011;43173;50.980;18.204;2023-08-01T18:10:40;4.50;;;3.20;;
57337;SDS011;43173;50.980;18.204;2023-08-01T18:13:06;6.70;;;3.10;;
57337;SDS011;43173;50.980;18.204;2023-08-01T18:15:36;4.30;;;2.80;;
57337;SDS011;43173;50.980;18.204;2023-08-01T18:18:07;6.00;;;3.30;;
57337;SDS011;43173;50.980;18.204;2023-08-01T18:20:33;5.30;;;3.30;;
57337;SDS011;43173;50.980;18.204;2023-08-01T18:23:00;4.20;;;3.10;;
57337;SDS011;43173;50.980;18.204;2023-08-01T18:25:26;4.70;;;3.10;;
57337;SDS011;43173;50.980;18.204;2023-08-01T18:27:52;5.90;;;3.60;;
57337;SDS011;43173;50.980;18.204;2023-08-01T18:30:18;6.50;;;3.50;;
57337;SDS011;43173;50.980;18.204;2023-08-01T18:32:44;5.10;;;3.70;;
57337;SDS011;43173;50.980;18.204;2023-08-01T18:35:09;4.70;;;3.40;;
57337;SDS011;43173;50.980;18.204;2023-08-01T18:37:35;6.90;;;3.50;;
57337;SDS011;43173;50.980;18.204;2023-08-01T18:40:01;8.80;;;3.50;;
57337;SDS011;43173;50.980;18.204;2023-08-01T18:42:28;5.20;;;3.70;;
57337;SDS011;43173;50.980;18.204;2023-08-01T18:44:54;6.80;;;3.60;;
57337;SDS011;43173;50.980;18.204;2023-08-01T18:47:20;5.20;;;3.60;;
57337;SDS011;43173;50.980;18.204;2023-08-01T18:49:47;5.10;;;3.40;;
57337;SDS011;43173;50.980;18.204;2023-08-01T18:52:16;4.50;;;3.60;;
57337;SDS011;43173;50.980;18.204;2023-08-01T18:54:41;7.20;;;3.70;;
57337;SDS011;43173;50.980;18.204;2023-08-01T18:57:07;5.80;;;3.60;;
57337;SDS011;43173;50.980;18.204;2023-08-01T18:59:33;5.90;;;3.40;;
57337;SDS011;43173;50.980;18.204;2023-08-01T19:01:59;6.80;;;3.50;;
57337;SDS011;43173;50.980;18.204;2023-08-01T19:04:26;6.10;;;3.90;;
57337;SDS011;43173;50.980;18.204;2023-08-01T19:06:53;6.70;;;3.60;;
57337;SDS011;43173;50.980;18.204;2023-08-01T19:09:19;7.20;;;3.80;;
57337;SDS011;43173;50.980;18.204;2023-08-01T19:11:44;4.70;;;3.20;;
57337;SDS011;43173;50.980;18.204;2023-08-01T19:14:10;4.70;;;3.30;;
57337;SDS011;43173;50.980;18.204;2023-08-01T19:16:36;5.90;;;3.80;;
57337;SDS011;43173;50.980;18.204;2023-08-01T19:19:02;5.70;;;3.90;;
57337;SDS011;43173;50.980;18.204;2023-08-01T19:21:28;7.50;;;3.80;;
57337;SDS011;43173;50.980;18.204;2023-08-01T19:23:53;6.50;;;4.10;;
57337;SDS011;43173;50.980;18.204;2023-08-01T19:26:19;6.30;;;3.70;;
57337;SDS011;43173;50.980;18.204;2023-08-01T19:28:46;6.80;;;4.00;;
57337;SDS011;43173;50.980;18.204;2023-08-01T19:31:12;6.20;;;3.70;;
57337;SDS011;43173;50.980;18.204;2023-08-01T19:33:37;6.20;;;4.00;;
57337;SDS011;43173;50.980;18.204;2023-08-01T19:36:04;7.30;;;3.90;;
57337;SDS011;43173;50.980;18.204;2023-08-01T19:38:29;6.00;;;4.10;;
57337;SDS011;43173;50.980;18.204;2023-08-01T19:40:59;7.00;;;3.90;;
57337;SDS011;43173;50.980;18.204;2023-08-01T19:43:25;5.10;;;3.70;;
57337;SDS011;43173;50.980;18.204;2023-08-01T19:45:52;5.00;;;4.00;;
57337;SDS011;43173;50.980;18.204;2023-08-01T19:48:17;6.60;;;4.50;;
57337;SDS011;43173;50.980;18.204;2023-08-01T19:50:43;6.10;;;4.00;;
57337;SDS011;43173;50.980;18.204;2023-08-01T19:53:09;8.00;;;4.30;;
57337;SDS011;43173;50.980;18.204;2023-08-01T19:55:35;6.50;;;4.00;;
57337;SDS011;43173;50.980;18.204;2023-08-01T19:58:03;6.30;;;4.20;;
57337;SDS011;43173;50.980;18.204;2023-08-01T20:00:28;6.90;;;4.30;;
57337;SDS011;43173;50.980;18.204;2023-08-01T20:02:56;5.00;;;4.00;;
57337;SDS011;43173;50.980;18.204;2023-08-01T20:05:23;6.20;;;4.80;;
57337;SDS011;43173;50.980;18.204;2023-08-01T20:07:49;9.00;;;4.80;;
57337;SDS011;43173;50.980;18.204;2023-08-01T20:10:18;6.30;;;4.10;;
57337;SDS011;43173;50.980;18.204;2023-08-01T20:12:44;5.50;;;3.70;;
57337;SDS011;43173;50.980;18.204;2023-08-01T20:15:10;6.90;;;4.00;;
57337;SDS011;43173;50.980;18.204;2023-08-01T20:17:35;5.60;;;3.50;;
57337;SDS011;43173;50.980;18.204;2023-08-01T20:20:01;6.40;;;4.20;;
57337;SDS011;43173;50.980;18.204;2023-08-01T20:22:28;5.80;;;4.00;;
57337;SDS011;43173;50.980;18.204;2023-08-01T20:24:54;6.50;;;4.00;;
57337;SDS011;43173;50.980;18.204;2023-08-01T20:27:20;8.70;;;4.80;;
57337;SDS011;43173;50.980;18.204;2023-08-01T20:29:45;5.50;;;4.10;;
57337;SDS011;43173;50.980;18.204;2023-08-01T20:32:11;8.30;;;4.50;;
57337;SDS011;43173;50.980;18.204;2023-08-01T20:34:37;5.60;;;4.00;;
57337;SDS011;43173;50.980;18.204;2023-08-01T20:37:03;6.10;;;4.30;;
57337;SDS011;43173;50.980;18.204;2023-08-01T20:39:29;5.30;;;3.90;;
57337;SDS011;43173;50.980;18.204;2023-08-01T20:41:55;5.70;;;3.80;;
57337;SDS011;43173;50.980;18.204;2023-08-01T20:44:21;5.80;;;3.40;;
57337;SDS011;43173;50.980;18.204;2023-08-01T20:46:47;5.70;;;2.90;;
57337;SDS011;43173;50.980;18.204;2023-08-01T20:49:13;4.70;;;3.00;;
57337;SDS011;43173;50.980;18.204;2023-08-01T20:51:38;3.30;;;3.00;;
57337;SDS011;43173;50.980;18.204;2023-08-01T20:54:04;3.10;;;2.30;;
57337;SDS011;43173;50.980;18.204;2023-08-01T20:56:30;2.40;;;1.70;;
57337;SDS011;43173;50.980;18.204;2023-08-01T20:58:56;2.60;;;1.80;;
57337;SDS011;43173;50.980;18.204;2023-08-01T21:01:21;3.30;;;1.80;;
57337;SDS011;43173;50.980;18.204;2023-08-01T21:03:47;1.80;;;1.60;;
57337;SDS011;43173;50.980;18.204;2023-08-01T21:06:13;4.10;;;1.60;;
57337;SDS011;43173;50.980;18.204;2023-08-01T21:08:40;3.00;;;1.80;;
57337;SDS011;43173;50.980;18.204;2023-08-01T21:11:10;4.10;;;1.70;;
57337;SDS011;43173;50.980;18.204;2023-08-01T21:13:36;3.40;;;1.60;;
57337;SDS011;43173;50.980;18.204;2023-08-01T21:18:44;2.70;;;1.60;;
57337;SDS011;43173;50.980;18.204;2023-08-01T21:21:10;2.30;;;1.50;;
57337;SDS011;43173;50.980;18.204;2023-08-01T21:23:41;2.10;;;1.40;;
57337;SDS011;43173;50.980;18.204;2023-08-01T21:26:08;4.70;;;1.80;;
57337;SDS011;43173;50.980;18.204;2023-08-01T21:28:34;3.10;;;1.50;;
57337;SDS011;43173;50.980;18.204;2023-08-01T21:31:00;5.00;;;2.10;;
57337;SDS011;43173;50.980;18.204;2023-08-01T21:33:26;3.90;;;1.90;;
57337;SDS011;43173;50.980;18.204;2023-08-01T21:35:52;3.70;;;1.90;;
57337;SDS011;43173;50.980;18.204;2023-08-01T21:38:18;4.40;;;1.60;;
57337;SDS011;43173;50.980;18.204;2023-08-01T21:40:43;3.20;;;1.60;;
57337;SDS011;43173;50.980;18.204;2023-08-01T21:43:09;4.80;;;1.90;;
57337;SDS011;43173;50.980;18.204;2023-08-01T21:45:34;4.10;;;1.80;;
57337;SDS011;43173;50.980;18.204;2023-08-01T21:48:00;3.80;;;1.90;;
57337;SDS011;43173;50.980;18.204;2023-08-01T21:50:26;6.50;;;1.70;;
57337;SDS011;43173;50.980;18.204;2023-08-01T21:52:52;6.50;;;1.90;;
57337;SDS011;43173;50.980;18.204;2023-08-01T21:55:18;4.00;;;1.90;;
57337;SDS011;43173;50.980;18.204;2023-08-01T21:57:45;4.50;;;2.40;;
57337;SDS011;43173;50.980;18.204;2023-08-01T22:00:11;3.20;;;2.30;;
57337;SDS011;43173;50.980;18.204;2023-08-01T22:14:23;4.60;;;2.40;;
57337;SDS011;43173;50.980;18.204;2023-08-01T22:16:49;2.70;;;2.50;;
57337;SDS011;43173;50.980;18.204;2023-08-01T22:19:15;3.60;;;2.10;;
57337;SDS011;43173;50.980;18.204;2023-08-01T22:21:41;5.30;;;2.30;;
57337;SDS011;43173;50.980;18.204;2023-08-01T22:24:07;2.90;;;2.40;;
57337;SDS011;43173;50.980;18.204;2023-08-01T22:26:34;3.60;;;2.40;;
57337;SDS011;43173;50.980;18.204;2023-08-01T22:28:59;4.70;;;2.00;;
57337;SDS011;43173;50.980;18.204;2023-08-01T22:31:25;5.10;;;2.20;;
57337;SDS011;43173;50.980;18.204;2023-08-01T22:33:51;4.60;;;2.00;;
57337;SDS011;43173;50.980;18.204;2023-08-01T22:36:17;6.20;;;2.10;;
57337;SDS011;43173;50.980;18.204;2023-08-01T22:38:44;3.30;;;2.10;;
57337;SDS011;43173;50.980;18.204;2023-08-01T22:41:16;4.60;;;2.40;;
57337;SDS011;43173;50.980;18.204;2023-08-01T22:43:45;3.60;;;2.60;;
57337;SDS011;43173;50.980;18.204;2023-08-01T22:46:11;4.40;;;2.50;;
57337;SDS011;43173;50.980;18.204;2023-08-01T22:48:37;3.90;;;2.60;;
57337;SDS011;43173;50.980;18.204;2023-08-01T22:51:11;4.60;;;2.60;;
57337;SDS011;43173;50.980;18.204;2023-08-01T22:53:38;4.60;;;2.80;;
57337;SDS011;43173;50.980;18.204;2023-08-01T22:56:07;5.00;;;2.90;;